LAKE COUNTY AMOS NETWORK
                             Weekly Meteorological Summary
                           Station: Pope Valley (St. Supery)

             T e m p e r a t u r e   Avg   Avg    RH     W  I  N  D    Solar        Daily   Seas  Hours Hours
            Max  Occur  Min  Occur  Temp DewPt   Avg   Avg   Max  Gust  Cal/   ETo Precip Precip   Temp  Temp
   Date      F     PST   F     PST     F     F     %   mph   mph   Dir   cm2    In     In  7/1-> 70-85F  >95F
-------------------------------------------------------------------------------------------------------------
  06/15/17  91.6  1543  45.3   608  70.7  50.1    54   0.0   2.1    SW   775  0.30   0.00  47.48    2.4   0.0
  06/16/17  99.5  1646  55.6   608  79.3  57.1    53   0.0   2.4   NNE   780  0.30   0.00  47.48    2.8   6.1
  06/17/17 101.7  1618  58.5   556  81.3  58.5    52   0.0   2.1     S   784  0.30   0.00  47.48    3.0   7.1
  06/18/17 107.3  1640  62.2   608  86.1  57.5    46   0.0   2.2   SSE   786  0.30   0.00  47.48    3.3  10.3
  06/19/17 104.0  1447  62.7   605  84.9  61.8    50   0.0   0.0   WNW   769  0.30   0.00  47.48    3.6   8.1
  06/20/17 101.4  1532  65.4   602  84.4  64.1    54   0.0   0.0     W   769  0.30   0.00  47.48    4.2   8.3
  06/21/17 106.5  1447  63.5   604  84.7  62.4    53   0.0   0.9    SE   787  0.30   0.00  47.48    3.4   9.2

                                                                                                                 
   Avg/Tot 101.7        59.0        81.6  58.8    52   0.0   1.4         779  2.11   0.00          22.7  49.0    
   Maximum 107.3        65.4          
   Minimum  91.6        45.3

=============================================================================================================

                         LAKE COUNTY VALLEY AMOS NETWORK
                    Pope Valley (St. Supery) Hourly Observations

                        Dew       H o u r l y   Max SolRad       Total Daily Daily
                 Temp    Pt    RH  Wind  Wind  Gust Watts/  Prec  Prec  MinT  MaxT
    Date   PST      F     F     %   Dir   mph   mph     m2    In Today     F     F
----------------------------------------------------------------------------------
  06/22/17 0700  70.8  65.1    82     N   0.0   0.0     69  0.00  0.00  64.5  74.9
  06/22/17 0600  65.5  63.5    93     N   0.0   0.0      1  0.00  0.00  64.5  74.9
  06/22/17 0500  65.8  61.8    87     N   0.0   0.0      0  0.00  0.00  65.5  74.9
  06/22/17 0400  66.8  62.1    85     N   0.0   0.0      0  0.00  0.00  66.8  74.9
  06/22/17 0300  68.4  64.1    86     N   0.0   0.0      0  0.00  0.00  67.9  74.9
  06/22/17 0200  69.8  63.1    79     N   0.0   0.0      0  0.00  0.00  69.8  74.9
  06/22/17 0100  72.4  64.2    75     N   0.0   0.0      0  0.00  0.00  72.4  74.9
  06/22/17 0000  74.8  64.7    71     N   0.0   0.0      0  0.00  0.00  63.5 106.5
  06/21/17 2300  78.3  67.5    69     N   0.0   0.0      0  0.00  0.00  63.5 106.5
  06/21/17 2200  80.7  67.3    64     N   0.0   0.0      0  0.00  0.00  63.5 106.5
  06/21/17 2100  86.7  66.6    51     N   0.0   0.0     15  0.00  0.00  63.5 106.5
  06/21/17 2000  94.9  65.6    38     N   0.0   0.0    156  0.00  0.00  63.5 106.5
  06/21/17 1900  98.4  66.4    35     N   0.0   0.0    352  0.00  0.00  63.5 106.5
  06/21/17 1800 101.5  65.6    31     N   0.0   0.0    556  0.00  0.00  63.5 106.5
  06/21/17 1700 103.1  65.2    30     N   0.0   0.0    744  0.00  0.00  63.5 106.5
  06/21/17 1600 103.3  65.3    29     N   0.0   0.0    906  0.00  0.00  63.5 106.5
  06/21/17 1500 105.7  60.0    23     N   0.0   0.0   1021  0.00  0.00  63.5 106.5
  06/21/17 1400 103.8  55.8    21     N   0.0   0.0   1061  0.00  0.00  63.5 105.4
  06/21/17 1300 102.5  58.2    23     N   0.0   0.0   1047  0.00  0.00  63.5 103.1
  06/21/17 1200 101.5  61.4    27     N   0.0   0.0    969  0.00  0.00  63.5 102.1
  06/21/17 1100  97.3  60.8    30     N   0.0   0.0    843  0.00  0.00  63.5  97.3
  06/21/17 1000  87.1  66.7    51     N   0.0   0.0    673  0.00  0.00  63.5  87.2
  06/21/17 0900  78.4  64.5    62   SSW   0.0   0.9    475  0.00  0.00  63.5  78.4
  06/21/17 0800  71.3  61.5    71     S   0.0   0.9    260  0.00  0.00  63.5  73.1
  06/21/17 0700  66.7  60.4    80     N   0.0   0.0     68  0.00  0.00  63.5  73.1
  06/21/17 0600  63.5  58.9    85     N   0.0   0.0      1  0.00  0.00  63.5  73.1
  06/21/17 0500  64.1  59.1    84     N   0.0   0.0      0  0.00  0.00  64.1  73.1
  06/21/17 0400  65.0  58.9    81     N   0.0   0.0      0  0.00  0.00  65.0  73.1
  06/21/17 0300  66.3  59.5    79     N   0.0   0.0      0  0.00  0.00  66.3  73.1
  06/21/17 0200  67.9  59.8    75     N   0.0   0.0      0  0.00  0.00  67.8  73.1
  06/21/17 0100  69.7  60.6    73     N   0.0   0.0      0  0.00  0.00  69.3  73.1
  06/21/17 0000  73.3  62.4    69     N   0.0   0.0      0  0.00  0.00  65.4 101.4
  06/20/17 2300  75.8  62.3    63     N   0.0   0.0      0  0.00  0.00  65.4 101.4
  06/20/17 2200  82.6  60.5    47     N   0.0   0.0      0  0.00  0.00  65.4 101.4
  06/20/17 2100  85.9  60.5    43     N   0.0   0.0     14  0.00  0.00  65.4 101.4
  06/20/17 2000  91.6  64.2    40     N   0.0   0.0    151  0.00  0.00  65.4 101.4
  06/20/17 1900  95.7  65.7    38     N   0.0   0.0    340  0.00  0.00  65.4 101.4
  06/20/17 1800  98.5  65.8    35     N   0.0   0.0    541  0.00  0.00  65.4 101.4
  06/20/17 1700  99.4  66.5    35     N   0.0   0.0    728  0.00  0.00  65.4 101.4
  06/20/17 1600 100.1  67.0    34     N   0.0   0.0    888  0.00  0.00  65.4 101.4
  06/20/17 1500 100.1  67.5    35     N   0.0   0.0    991  0.00  0.00  65.4 101.2
  06/20/17 1400  99.9  66.8    34     N   0.0   0.0   1033  0.00  0.00  65.4 101.1
  06/20/17 1300  99.4  67.6    36     N   0.0   0.0   1022  0.00  0.00  65.4 101.1
  06/20/17 1200  99.0  65.5    34     N   0.0   0.0    952  0.00  0.00  65.4  99.1
  06/20/17 1100  95.6  66.0    38     N   0.0   0.0    827  0.00  0.00  65.4  95.7
  06/20/17 1000  87.2  68.0    53     N   0.0   0.0    659  0.00  0.00  65.4  87.2
  06/20/17 0900  80.2  64.8    59     N   0.0   0.0    463  0.00  0.00  65.4  80.2
  06/20/17 0800  74.5  63.6    69     N   0.0   0.0    256  0.00  0.00  65.4  76.2
  06/20/17 0700  70.7  63.0    77     N   0.0   0.0     67  0.00  0.00  65.4  76.2
  06/20/17 0600  65.5  60.1    83     N   0.0   0.0      1  0.00  0.00  65.5  76.2
  06/20/17 0500  67.0  60.6    80     N   0.0   0.0      0  0.00  0.00  67.0  76.2
  06/20/17 0400  67.9  60.9    78     N   0.0   0.0      0  0.00  0.00  67.9  76.2
  06/20/17 0300  69.2  61.3    76     N   0.0   0.0      0  0.00  0.00  69.2  76.2
  06/20/17 0200  70.9  63.6    78     N   0.0   0.0      0  0.00  0.00  70.8  76.2
  06/20/17 0100  72.9  63.7    73     N   0.0   0.0      0  0.00  0.00  72.9  76.2
  06/20/17 0000  76.2  65.0    68     N   0.0   0.0      0  0.00  0.00  62.7 104.0
  06/19/17 2300  82.3  64.1    54     N   0.0   0.0      0  0.00  0.00  62.7 104.0
  06/19/17 2200  87.6  60.8    41     N   0.0   0.0      0  0.00  0.00  62.7 104.0
  06/19/17 2100  89.5  61.5    39     N   0.0   0.0     13  0.00  0.00  62.7 104.0
  06/19/17 2000  92.3  62.4    37     N   0.0   0.0    150  0.00  0.00  62.7 104.0
  06/19/17 1900  95.7  63.6    35     N   0.0   0.0    344  0.00  0.00  62.7 104.0
  06/19/17 1800  99.9  64.9    32     N   0.0   0.0    548  0.00  0.00  62.7 104.0
  06/19/17 1700  99.7  64.4    32     N   0.0   0.0    732  0.00  0.00  62.7 104.0
  06/19/17 1600 102.4  65.3    30     N   0.0   0.0    892  0.00  0.00  62.7 104.0
  06/19/17 1500 102.7  65.9    31     N   0.0   0.0    997  0.00  0.00  62.7 104.0
  06/19/17 1400 102.5  62.6    28     N   0.0   0.0   1039  0.00  0.00  62.7 102.7
  06/19/17 1300 102.4  63.6    29     N   0.0   0.0   1025  0.00  0.00  62.7 102.6
  06/19/17 1200  99.9  60.4    27     N   0.0   0.0    956  0.00  0.00  62.7  99.9
  06/19/17 1100  94.2  60.2    32     N   0.0   0.0    825  0.00  0.00  62.7  94.2
  06/19/17 1000  87.0  61.2    42     N   0.0   0.0    632  0.00  0.00  62.7  87.7
  06/19/17 0900  80.6  63.5    56     N   0.0   0.0    461  0.00  0.00  62.7  80.6
  06/19/17 0800  75.5  63.1    65     N   0.0   0.0    251  0.00  0.00  62.7  75.7
  06/19/17 0700  71.6  61.9    72     N   0.0   0.0     75  0.00  0.00  62.7  73.0
  06/19/17 0600  63.0  56.8    80     N   0.0   0.0      2  0.00  0.00  62.9  73.0
  06/19/17 0500  63.9  57.3    79     N   0.0   0.0      0  0.00  0.00  63.9  73.0
  06/19/17 0400  65.8  58.2    76     N   0.0   0.0      0  0.00  0.00  65.4  73.0
  06/19/17 0300  66.8  59.2    76     N   0.0   0.0      0  0.00  0.00  66.6  73.0
  06/19/17 0200  68.5  59.3    72     N   0.0   0.0      0  0.00  0.00  68.3  73.0
  06/19/17 0100  70.2  59.0    68     N   0.0   0.0      0  0.00  0.00  70.2  73.0
  06/19/17 0000  73.1  62.0    68     N   0.0   0.0      0  0.00  0.00  62.2 107.3
  06/18/17 2300  76.2  60.9    59     N   0.0   0.0      0  0.00  0.00  62.2 107.3
  06/18/17 2200  81.8  60.5    49     N   0.0   0.0      0  0.00  0.00  62.2 107.3
  06/18/17 2100  87.2  57.1    36     N   0.0   0.0     13  0.00  0.00  62.2 107.3
  06/18/17 2000  96.1  61.8    32     W   0.0   0.9    159  0.00  0.00  62.2 107.3
  06/18/17 1900  99.5  58.3    26     N   0.0   0.0    352  0.00  0.00  62.2 107.3
  06/18/17 1800 104.2  59.6    24     N   0.0   0.0    556  0.00  0.00  62.2 107.3
  06/18/17 1700 106.5  52.4    17     N   0.0   0.0    746  0.00  0.00  62.2 107.3
  06/18/17 1600 106.1  53.4    18     N   0.0   0.0    905  0.00  0.00  62.2 106.5
  06/18/17 1500 105.0  52.4    18     N   0.0   0.0   1008  0.00  0.00  62.2 105.2
  06/18/17 1400 104.0  53.0    19     N   0.0   0.0   1053  0.00  0.00  62.2 104.0
  06/18/17 1300 101.3  54.2    21     N   0.0   0.0   1041  0.00  0.00  62.2 102.0
  06/18/17 1200  99.9  50.7    19     N   0.0   0.0    970  0.00  0.00  62.2 100.0
  06/18/17 1100  98.1  53.6    23     N   0.0   0.0    843  0.00  0.00  62.2  98.5
  06/18/17 1000  95.5  53.2    24     N   0.0   0.0    669  0.00  0.00  62.2  95.7
  06/18/17 0900  90.1  58.0    34     N   0.0   0.0    476  0.00  0.00  62.2  90.1
  06/18/17 0800  78.1  62.8    59    SE   0.0   1.6    274  0.00  0.00  62.2  78.1
  06/18/17 0700  69.2  60.9    75   SSE   0.0   2.2     75  0.00  0.00  62.2  71.1
  06/18/17 0600  63.0  58.9    86     W   0.0   2.2      1  0.00  0.00  62.3  71.1
  06/18/17 0500  63.4  58.2    83     N   0.0   0.0      0  0.00  0.00  63.4  71.1
  06/18/17 0400  66.2  59.9    80     N   0.0   0.0      0  0.00  0.00  65.8  71.1
  06/18/17 0300  66.2  60.2    81     N   0.0   0.0      0  0.00  0.00  65.8  71.1
  06/18/17 0200  66.9  59.2    76     N   0.0   0.0      0  0.00  0.00  66.7  71.1
  06/18/17 0100  68.2  58.2    70     N   0.0   0.0      0  0.00  0.00  68.2  71.1
  06/18/17 0000  71.2  62.3    74     N   0.0   0.0      0  0.00  0.00  58.5 101.7
  06/17/17 2300  74.3  62.8    67     N   0.0   0.0      0  0.00  0.00  58.5 101.7
  06/17/17 2200  77.7  62.7    60     N   0.0   0.0      0  0.00  0.00  58.5 101.7
  06/17/17 2100  85.0  60.6    44     S   0.0   2.1     12  0.00  0.00  58.5 101.7
  06/17/17 2000  94.5  62.4    35     N   0.0   0.0    159  0.00  0.00  58.5 101.7
  06/17/17 1900  97.1  59.9    29    SW   0.0   1.1    352  0.00  0.00  58.5 101.7
  06/17/17 1800  99.3  58.7    26     N   0.0   0.0    552  0.00  0.00  58.5 101.7
  06/17/17 1700 100.8  57.0    24     N   0.0   0.0    739  0.00  0.00  58.5 101.7
  06/17/17 1600 101.1  56.8    23     N   0.0   0.0    899  0.00  0.00  58.5 101.1
  06/17/17 1500  99.1  56.8    25     N   0.0   0.0   1002  0.00  0.00  58.5  99.4
  06/17/17 1400  98.7  54.0    23     N   0.0   0.0   1050  0.00  0.00  58.5  98.8
  06/17/17 1300  96.2  55.9    26     N   0.0   0.0   1037  0.00  0.00  58.5  96.3
  06/17/17 1200  92.4  57.5    31     N   0.0   0.0    968  0.00  0.00  58.5  92.4
  06/17/17 1100  88.1  58.0    36     N   0.0   0.0    842  0.00  0.00  58.5  88.1
  06/17/17 1000  83.8  58.0    42     N   0.0   0.0    674  0.00  0.00  58.5  83.8
  06/17/17 0900  79.3  57.8    48     N   0.0   0.0    476  0.00  0.00  58.5  79.3
  06/17/17 0800  71.4  60.7    69   SSW   0.0   1.4    273  0.00  0.00  58.5  72.4
  06/17/17 0700  64.5  58.9    82     N   0.0   0.0     76  0.00  0.00  58.5  70.4
  06/17/17 0600  58.6  54.9    87     N   0.0   0.0      1  0.00  0.00  58.5  70.4
  06/17/17 0500  61.1  57.7    89     N   0.0   0.0      0  0.00  0.00  60.5  70.4
  06/17/17 0400  62.5  57.9    85     N   0.0   0.0      0  0.00  0.00  61.8  70.4
  06/17/17 0300  64.4  57.8    79     N   0.0   0.0      0  0.00  0.00  63.7  70.4
  06/17/17 0200  65.3  60.1    83     N   0.0   0.0      0  0.00  0.00  64.7  70.4
  06/17/17 0100  67.3  59.5    76     N   0.0   0.0      0  0.00  0.00  67.3  70.4
  06/17/17 0000  70.5  61.1    72     N   0.0   0.0      0  0.00  0.00  55.6  99.5
  06/16/17 2300  74.0  60.0    62     N   0.0   0.0      0  0.00  0.00  55.6  99.5
  06/16/17 2200  80.0  57.8    47     N   0.0   0.0      0  0.00  0.00  55.6  99.5
  06/16/17 2100  86.2  56.7    37     N   0.0   0.0      9  0.00  0.00  55.6  99.5
  06/16/17 2000  91.2  57.1    32     N   0.0   0.0    156  0.00  0.00  55.6  99.5
  06/16/17 1900  94.0  57.0    29     N   0.0   0.0    354  0.00  0.00  55.6  99.5
  06/16/17 1800  96.8  56.9    27     N   0.0   0.0    552  0.00  0.00  55.6  99.5
  06/16/17 1700  98.6  59.1    27     N   0.0   0.0    734  0.00  0.00  55.6  99.5
  06/16/17 1600  98.3  58.8    27     N   0.0   0.0    894  0.00  0.00  55.6  99.1
  06/16/17 1500  98.3  59.0    27     N   0.0   0.0    999  0.00  0.00  55.6  98.6
  06/16/17 1400  96.3  58.0    28     N   0.0   0.0   1044  0.00  0.00  55.6  97.1
  06/16/17 1300  95.5  57.1    28     N   0.0   0.0   1034  0.00  0.00  55.6  95.9
  06/16/17 1200  93.2  57.4    30     N   0.0   0.0    962  0.00  0.00  55.6  93.3
  06/16/17 1100  87.7  58.2    37     N   0.0   0.0    837  0.00  0.00  55.6  87.7
  06/16/17 1000  81.3  58.9    47     N   0.0   0.0    667  0.00  0.00  55.6  81.5
  06/16/17 0900  76.6  58.9    54     N   0.0   0.0    474  0.00  0.00  55.6  76.6
  06/16/17 0800  70.0  58.8    67     W   0.0   1.2    271  0.00  0.00  55.6  70.0
  06/16/17 0700  62.5  57.3    83     N   0.0   0.0     73  0.00  0.00  55.6  64.8
  06/16/17 0600  56.1  52.7    88     N   0.0   0.0      1  0.00  0.00  55.8  64.8
  06/16/17 0500  57.0  52.7    86     N   0.0   0.0      0  0.00  0.00  57.0  64.8
  06/16/17 0400  58.4  53.5    83     N   0.0   0.0      0  0.00  0.00  58.3  64.8
  06/16/17 0300  60.0  55.2    84     N   0.0   0.0      0  0.00  0.00  59.8  64.8
  06/16/17 0200  60.8  54.6    80   WNW   0.0   1.2      0  0.00  0.00  60.8  64.8
  06/16/17 0100  63.0  56.4    79   ENE   0.0   2.4      0  0.00  0.00  62.8  64.8
  06/16/17 0000  64.6  56.0    74   NNW   0.0   1.4      0  0.00  0.00  45.3  91.6
  06/15/17 2300  66.5  56.3    70    NE   0.0   1.2      0  0.00  0.00  45.3  91.6
  06/15/17 2200  69.9  57.2    64     N   0.0   0.0      0  0.00  0.00  45.3  91.6
  06/15/17 2100  75.4  57.7    54   WSW   0.0   2.1     11  0.00  0.00  45.3  91.6
  06/15/17 2000  82.8  53.3    36   WSW   0.0   1.2    157  0.00  0.00  45.3  91.6
  06/15/17 1900  85.7  54.1    34   SSW   0.0   0.9    242  0.00  0.00  45.3  91.6
  06/15/17 1800  88.5  54.3    31     N   0.0   0.0    590  0.00  0.00  45.3  91.6
  06/15/17 1700  89.7  53.8    30     N   0.0   0.0    687  0.00  0.00  45.3  91.6
  06/15/17 1600  91.3  53.8    28     N   0.0   0.0    897  0.00  0.00  45.3  91.6
  06/15/17 1500  90.7  53.1    28     N   0.0   0.0    999  0.00  0.00  45.3  91.5
  06/15/17 1400  90.3  51.8    27     N   0.0   0.0   1046  0.00  0.00  45.3  90.3
  06/15/17 1300  89.2  50.0    26     N   0.0   0.0   1041  0.00  0.00  45.3  89.7
  06/15/17 1200  86.9  47.0    25     N   0.0   0.0    979  0.00  0.00  45.3  87.2
  06/15/17 1100  82.1  48.6    31     N   0.0   0.0    850  0.00  0.00  45.3  82.3
  06/15/17 1000  77.2  49.1    37     N   0.0   0.0    684  0.00  0.00  45.3  77.2
  06/15/17 0900  67.1  52.7    60     N   0.0   0.0    489  0.00  0.00  45.3  67.1
  06/15/17 0800  60.0  50.9    72     N   0.0   0.0    264  0.00  0.00  45.3  60.0
  06/15/17 0700  53.1  48.1    83    SE   0.0   1.2     65  0.00  0.00  45.3  55.6